AFL432 UHWW-VHHH
Flight info
| Callsign | AFL432 |
|---|---|
| Flight time | N/A |
| Altitude | 34100 |
| Route | SANAR2F SANAR B451 WQG DCT BIDIB A588 UDETI W202 DOBGA V68 TEKAM W172 FD W174 XDX DCT ELNEX A599 PLT W19 NOMAR W18 TAMOT |
| Aircraft | B77W/H-SDE1E2E3FGHIJ2J3J4J5M1RWXY/LB1D1 |
Departure
| Time | 2026-05-04 15:48 |
|---|---|
| Airport | Vladivostok International Airport (UHWW) |
Arrival
| Time | N/A |
|---|---|
| Airport | Hong Kong International Airport (VHHH) |
| Time | Latitude | Longitude | Altitude | Speed | Heading |
|---|---|---|---|---|---|
| 2026-05-04 15:31 | 43.39761 | 132.16552 | 38 ft | 0 kts | 152° |
| 2026-05-04 15:35 | 43.39774 | 132.16542 | 36 ft | 4 kts | 151° |
| 2026-05-04 15:35 | 43.39782 | 132.16537 | 36 ft | 4 kts | 151° |
| 2026-05-04 15:35 | 43.39783 | 132.16536 | 36 ft | 4 kts | 151° |
| 2026-05-04 15:36 | 43.39784 | 132.16535 | 36 ft | 4 kts | 151° |
| 2026-05-04 15:36 | 43.39786 | 132.16533 | 35 ft | 4 kts | 151° |
| 2026-05-04 15:36 | 43.39797 | 132.16525 | 36 ft | 4 kts | 150° |
| 2026-05-04 15:37 | 43.39805 | 132.16518 | 36 ft | 4 kts | 148° |
| 2026-05-04 15:37 | 43.39812 | 132.16512 | 36 ft | 4 kts | 145° |
| 2026-05-04 15:37 | 43.39818 | 132.16506 | 36 ft | 4 kts | 140° |
| 2026-05-04 15:37 | 43.39824 | 132.16499 | 34 ft | 3 kts | 129° |
| 2026-05-04 15:38 | 43.39827 | 132.16493 | 38 ft | 4 kts | 115° |
| 2026-05-04 15:38 | 43.39830 | 132.16487 | 38 ft | 4 kts | 97° |
| 2026-05-04 15:38 | 43.39830 | 132.16478 | 38 ft | 3 kts | 78° |
| 2026-05-04 15:38 | 43.39830 | 132.16474 | 38 ft | 2 kts | 73° |
| 2026-05-04 15:39 | 43.39829 | 132.16472 | 38 ft | 4 kts | 72° |
| 2026-05-04 15:39 | 43.39829 | 132.16471 | 38 ft | 2 kts | 71° |
| 2026-05-04 15:39 | 43.39828 | 132.16467 | 38 ft | 2 kts | 69° |
| 2026-05-04 15:40 | 43.39827 | 132.16462 | 38 ft | 2 kts | 64° |
| 2026-05-04 15:40 | 43.39824 | 132.16456 | 38 ft | 2 kts | 63° |
| 2026-05-04 15:40 | 43.39822 | 132.16451 | 38 ft | 2 kts | 62° |
| 2026-05-04 15:40 | 43.39820 | 132.16445 | 38 ft | 2 kts | 61° |
| 2026-05-04 15:41 | 43.39819 | 132.16443 | 38 ft | 0 kts | 61° |
| 2026-05-04 15:44 | 43.39830 | 132.16472 | 38 ft | 7 kts | 63° |
| 2026-05-04 15:44 | 43.39866 | 132.16568 | 38 ft | 14 kts | 60° |
| 2026-05-04 15:44 | 43.39914 | 132.16685 | 38 ft | 14 kts | 60° |
| 2026-05-04 15:44 | 43.39961 | 132.16801 | 38 ft | 14 kts | 60° |
| 2026-05-04 15:45 | 43.40008 | 132.16918 | 38 ft | 14 kts | 61° |
| 2026-05-04 15:45 | 43.40055 | 132.17034 | 38 ft | 8 kts | 61° |
| 2026-05-04 15:45 | 43.40091 | 132.17084 | 38 ft | 8 kts | 21° |
| 2026-05-04 15:45 | 43.40140 | 132.17067 | 38 ft | 8 kts | 332° |
| 2026-05-04 15:46 | 43.40188 | 132.17033 | 38 ft | 8 kts | 332° |
| 2026-05-04 15:46 | 43.40239 | 132.16995 | 38 ft | 9 kts | 332° |
| 2026-05-04 15:46 | 43.40299 | 132.16951 | 38 ft | 11 kts | 332° |
| 2026-05-04 15:46 | 43.40366 | 132.16899 | 37 ft | 12 kts | 329° |
| 2026-05-04 15:47 | 43.40418 | 132.16848 | 37 ft | 8 kts | 308° |
| 2026-05-04 15:47 | 43.40425 | 132.16775 | 37 ft | 9 kts | 245° |
| 2026-05-04 15:47 | 43.40416 | 132.16749 | 37 ft | 0 kts | 243° |
| 2026-05-04 15:47 | 43.40415 | 132.16746 | 37 ft | 4 kts | 243° |
| 2026-05-04 15:48 | 43.40333 | 132.16513 | 37 ft | 63 kts | 248° |
| 2026-05-04 15:48 | 43.39989 | 132.15696 | 36 ft | 136 kts | 240° |
| 2026-05-04 15:48 | 43.38785 | 132.12716 | 781 ft | 186 kts | 241° |
| 2026-05-04 15:49 | 43.38160 | 132.11158 | 1663 ft | 181 kts | 238° |
| 2026-05-04 15:49 | 43.37530 | 132.09603 | 2164 ft | 196 kts | 238° |
| 2026-05-04 15:49 | 43.36826 | 132.07875 | 2391 ft | 219 kts | 238° |
| 2026-05-04 15:49 | 43.36057 | 132.05990 | 2821 ft | 231 kts | 238° |
| 2026-05-04 15:50 | 43.35251 | 132.04011 | 3365 ft | 243 kts | 239° |
| 2026-05-04 15:50 | 43.34450 | 132.01928 | 3913 ft | 249 kts | 245° |
| 2026-05-04 15:50 | 43.33834 | 131.99671 | 4443 ft | 256 kts | 252° |
| 2026-05-04 15:50 | 43.33336 | 131.97352 | 5162 ft | 256 kts | 254° |
| 2026-05-04 15:51 | 43.32851 | 131.95007 | 5892 ft | 254 kts | 255° |
| 2026-05-04 15:51 | 43.32359 | 131.92670 | 6438 ft | 256 kts | 255° |
| 2026-05-04 15:51 | 43.31853 | 131.90323 | 6937 ft | 257 kts | 255° |
| 2026-05-04 15:51 | 43.31337 | 131.87971 | 7462 ft | 257 kts | 256° |
| 2026-05-04 15:52 | 43.30813 | 131.85618 | 7971 ft | 258 kts | 256° |
| 2026-05-04 15:52 | 43.30283 | 131.83259 | 8494 ft | 259 kts | 257° |
| 2026-05-04 15:52 | 43.30103 | 131.82465 | 8655 ft | 259 kts | 257° |
| 2026-05-04 15:52 | 43.29208 | 131.78527 | 9497 ft | 260 kts | 257° |
| 2026-05-04 15:53 | 43.28849 | 131.76955 | 9805 ft | 261 kts | 258° |